Time;durP1;ratioP1;P1;durP2;ratioP2;P2;SDS_P1;SDS_P2;PMS_P1;PMS_P2;Temp;Humidity;BMP_temperature;BMP_pressure;BME280_temperature;BME280_humidity;BME280_pressure;Samples;Min_cycle;Max_cycle;Signal;HPM_P1;HPM_P2
2022/12/12 00:02:17;;;;;;;14.80;5.10;;;;;;;3.32;78.63;97753.14;1686966;84;21004;-76
2022/12/12 00:04:44;;;;;;;12.90;5.47;;;;;;;3.27;79.39;97758.82;1687887;84;22131;-77
2022/12/12 00:07:12;;;;;;;11.78;4.45;;;;;;;3.26;79.21;97755.83;1687438;85;21542;-77
2022/12/12 00:09:39;;;;;;;11.60;5.95;;;;;;;3.30;78.60;97766.04;1687754;84;21638;-77
2022/12/12 00:12:08;;;;;;;9.83;5.17;;;;;;;3.28;78.64;97760.08;1684871;85;21514;-78
2022/12/12 00:14:35;;;;;;;13.32;5.17;;;;;;;3.27;79.01;97760.10;1676963;84;21568;-77
2022/12/12 00:17:03;;;;;;;12.50;5.17;;;;;;;3.28;78.46;97774.63;1652525;85;21550;-77
2022/12/12 00:19:30;;;;;;;15.63;6.33;;;;;;;3.21;78.56;97776.45;1644299;86;21513;-77
2022/12/12 00:21:58;;;;;;;11.70;5.58;;;;;;;3.14;78.97;97779.98;1644324;86;21831;-77
2022/12/12 00:24:25;;;;;;;11.85;5.05;;;;;;;3.14;79.27;97791.13;1643013;86;21040;-77
2022/12/12 00:26:53;;;;;;;10.72;4.92;;;;;;;3.11;79.40;97791.61;1642866;86;21600;-77
2022/12/12 00:29:20;;;;;;;12.93;5.40;;;;;;;3.10;79.79;97791.19;1642782;86;21067;-77
2022/12/12 00:31:47;;;;;;;10.25;5.08;;;;;;;3.14;79.72;97797.55;1633642;86;21104;-78
2022/12/12 00:34:15;;;;;;;11.95;5.12;;;;;;;3.15;79.25;97795.83;1642597;86;21115;-77
2022/12/12 00:36:43;;;;;;;11.78;5.03;;;;;;;3.07;80.79;97787.40;1643372;86;21663;-77
2022/12/12 00:39:10;;;;;;;16.85;5.35;;;;;;;3.08;80.47;97789.08;1642059;86;21064;-78
2022/12/12 00:41:38;;;;;;;9.23;4.60;;;;;;;3.05;80.29;97785.30;1631161;87;21055;-77
2022/12/12 00:44:05;;;;;;;13.40;5.58;;;;;;;3.08;80.03;97778.36;1668548;85;22465;-77
2022/12/12 00:46:33;;;;;;;11.97;5.67;;;;;;;2.97;80.88;97786.25;1657787;85;21560;-77
2022/12/12 00:49:00;;;;;;;13.25;5.55;;;;;;;2.96;80.89;97788.42;1637090;86;21066;-76
2022/12/12 00:51:29;;;;;;;10.85;5.75;;;;;;;2.93;81.27;97785.89;1662336;85;21125;-78
2022/12/12 00:53:58;;;;;;;10.90;5.35;;;;;;;2.93;81.17;97782.03;1640237;85;21045;-77
2022/12/12 00:56:28;;;;;;;12.58;4.87;;;;;;;3.01;80.44;97779.80;1665773;85;21021;-77
2022/12/12 00:58:55;;;;;;;13.70;5.22;;;;;;;3.00;80.37;97786.62;1642069;87;21014;-77
2022/12/12 01:01:27;;;;;;;13.40;5.70;;;;;;;2.99;81.02;97787.08;1667771;84;21018;-78
2022/12/12 01:03:54;;;;;;;11.03;5.55;;;;;;;2.94;81.10;97781.14;1630813;87;21082;-77
2022/12/12 01:06:22;;;;;;;16.65;5.53;;;;;;;2.93;81.29;97792.30;1670901;85;21017;-77
2022/12/12 01:08:50;;;;;;;12.50;4.80;;;;;;;2.96;81.22;97782.00;1633417;87;21038;-77
2022/12/12 01:11:18;;;;;;;11.30;4.78;;;;;;;2.99;80.71;97786.23;1674996;85;21034;-77
2022/12/12 01:13:49;;;;;;;12.35;5.55;;;;;;;3.04;80.92;97779.73;1643564;87;21062;-77
2022/12/12 01:16:17;;;;;;;9.38;4.45;;;;;;;2.99;81.14;97776.80;1645378;86;21057;-77
2022/12/12 01:18:45;;;;;;;10.58;4.62;;;;;;;3.00;81.09;97775.08;1619928;87;21621;-77
2022/12/12 01:21:15;;;;;;;16.62;5.03;;;;;;;2.98;81.28;97769.98;1631057;87;22199;-77
2022/12/12 01:23:44;;;;;;;13.03;4.87;;;;;;;3.00;80.78;97768.66;1622562;87;21062;-76
2022/12/12 01:26:16;;;;;;;10.68;5.15;;;;;;;2.97;81.17;97764.42;1630901;87;21412;-77
2022/12/12 01:28:45;;;;;;;12.78;5.10;;;;;;;2.96;81.33;97761.47;1627251;87;21038;-76
2022/12/12 01:31:13;;;;;;;10.82;5.10;;;;;;;2.97;81.29;97767.00;1631729;87;21038;-77
2022/12/12 01:33:44;;;;;;;11.65;4.40;;;;;;;2.98;80.89;97761.41;1629009;86;21019;-78
2022/12/12 01:36:18;;;;;;;13.20;5.40;;;;;;;2.94;81.63;97764.91;1628291;87;21003;-76
2022/12/12 01:38:46;;;;;;;11.97;4.95;;;;;;;2.97;81.27;97765.70;1631127;87;21038;-76
2022/12/12 01:41:15;;;;;;;12.28;4.87;;;;;;;2.96;81.49;97762.75;1620826;87;21005;-77
2022/12/12 01:43:43;;;;;;;11.35;4.78;;;;;;;2.99;81.39;97766.53;1630782;87;21113;-77
2022/12/12 01:46:38;;;;;;;8.38;4.42;;;;;;;2.97;81.26;97773.41;1625318;87;21014;-77
2022/12/12 01:49:20;;;;;;;10.98;4.92;;;;;;;2.98;80.92;97781.95;1633348;87;21041;-77
2022/12/12 01:51:51;;;;;;;14.65;5.67;;;;;;;2.97;81.88;97788.81;1632633;87;21050;-77
2022/12/12 01:54:24;;;;;;;14.47;5.87;;;;;;;2.94;82.04;97777.73;1630643;87;21031;-77
2022/12/12 01:56:54;;;;;;;17.50;5.75;;;;;;;2.92;82.48;97782.05;1632897;87;21014;-76
2022/12/12 01:59:24;;;;;;;14.38;6.03;;;;;;;2.92;82.09;97786.74;1617560;88;21030;-77
2022/12/12 02:01:52;;;;;;;14.90;6.87;;;;;;;2.95;81.43;97790.56;1634766;87;21002;-77
2022/12/12 02:04:21;;;;;;;10.35;5.10;;;;;;;2.88;83.13;97787.66;1639521;87;21106;-76
2022/12/12 02:06:50;;;;;;;13.10;5.53;;;;;;;2.95;82.21;97792.29;1623565;87;21027;-77
2022/12/12 02:09:20;;;;;;;13.03;5.53;;;;;;;2.90;82.56;97792.78;1642949;87;21098;-76
2022/12/12 02:11:52;;;;;;;17.00;5.30;;;;;;;2.90;83.00;97791.50;1623890;87;21110;-77
2022/12/12 02:14:39;;;;;;;11.35;5.05;;;;;;;2.89;82.74;97795.80;1650863;86;21050;-76
2022/12/12 02:17:12;;;;;;;11.53;4.65;;;;;;;2.91;82.90;97798.34;1689424;84;21027;-77
2022/12/12 02:20:28;;;;;;;11.60;5.05;;;;;;;2.92;82.55;97806.44;1672998;85;20997;-76
2022/12/12 02:23:37;;;;;;;9.95;4.35;;;;;;;2.93;82.44;97810.27;1693172;84;21019;-77
2022/12/12 02:26:29;;;;;;;11.18;4.78;;;;;;;2.98;81.80;97805.94;1674077;85;21005;-76
2022/12/12 02:29:32;;;;;;;11.68;4.53;;;;;;;2.95;82.13;97807.25;1704775;84;21004;-76
2022/12/12 02:32:23;;;;;;;10.60;4.78;;;;;;;2.99;81.58;97802.92;1665188;85;21010;-78
2022/12/12 02:35:19;;;;;;;9.80;4.42;;;;;;;2.99;81.61;97799.07;1679932;84;21027;-77
2022/12/12 02:37:57;;;;;;;10.18;4.17;;;;;;;3.00;81.45;97800.75;1664568;85;20986;-76
2022/12/12 02:40:52;;;;;;;7.35;3.80;;;;;;;3.01;81.38;97805.03;1687947;84;21075;-76
2022/12/12 02:43:40;;;;;;;9.13;4.55;;;;;;;3.01;81.40;97811.45;1662893;85;21451;-77
2022/12/12 02:46:18;;;;;;;9.95;4.22;;;;;;;3.00;81.35;97804.60;1680617;84;21027;-77
2022/12/12 02:49:09;;;;;;;11.70;3.92;;;;;;;3.01;81.43;97801.62;1683434;84;21000;-76
2022/12/12 02:51:38;;;;;;;6.70;3.25;;;;;;;3.01;81.10;97792.64;1641339;85;21036;-76
2022/12/12 02:54:20;;;;;;;11.03;4.35;;;;;;;2.99;81.01;97792.66;1679579;84;21015;-77
2022/12/12 02:56:58;;;;;;;8.48;4.12;;;;;;;2.98;81.06;97787.96;1702228;84;20984;-77
2022/12/12 02:59:36;;;;;;;8.15;3.83;;;;;;;3.00;80.95;97791.77;1665379;85;21052;-77
2022/12/12 03:02:38;;;;;;;8.88;3.62;;;;;;;3.04;80.85;97793.86;1708125;84;21116;-76
2022/12/12 03:09:04;;;;;;;6.40;3.55;;;;;;;2.97;80.87;97783.69;1664988;85;21073;-76
2022/12/12 03:12:05;;;;;;;8.43;4.08;;;;;;;3.01;80.97;97796.48;1709016;84;21168;-77
2022/12/12 03:14:58;;;;;;;10.08;3.65;;;;;;;2.97;81.31;97805.50;1591633;88;21487;-76
2022/12/12 03:17:42;;;;;;;10.13;4.15;;;;;;;2.97;81.21;97800.37;1657597;84;20999;-76
2022/12/12 03:20:26;;;;;;;9.20;4.03;;;;;;;2.99;81.08;97797.34;1658379;85;21125;-76
2022/12/12 03:23:02;;;;;;;12.47;5.42;;;;;;;2.95;81.61;97811.10;1702128;84;21027;-75
2022/12/12 03:25:37;;;;;;;10.82;4.28;;;;;;;2.92;82.04;97816.70;1661092;85;21644;-77
2022/12/12 03:28:42;;;;;;;9.80;4.75;;;;;;;2.93;81.72;97821.83;1682520;83;21104;-78
2022/12/12 03:31:11;;;;;;;;;;;;;;;2.92;82.22;97823.13;1679885;84;20971;-76
2022/12/12 03:33:56;;;;;;;10.65;5.00;;;;;;;2.94;82.32;97822.22;1688799;84;20158;-76
2022/12/12 03:36:34;;;;;;;10.03;4.25;;;;;;;2.93;82.30;97829.53;1670604;84;21066;-77
2022/12/12 03:39:10;;;;;;;8.38;3.87;;;;;;;2.91;81.97;97818.44;1676985;85;21062;-76
2022/12/12 03:41:42;;;;;;;10.18;4.78;;;;;;;2.92;82.34;97814.98;1654900;85;21042;-76
2022/12/12 03:44:27;;;;;;;10.48;4.70;;;;;;;2.95;82.50;97797.42;1662565;85;21649;-77
2022/12/12 03:47:03;;;;;;;11.05;4.35;;;;;;;2.95;81.96;97798.27;1680507;84;21004;-77
2022/12/12 03:49:44;;;;;;;11.00;4.87;;;;;;;2.94;82.29;97818.81;1681360;85;21013;-76
2022/12/12 03:52:20;;;;;;;12.47;4.28;;;;;;;2.83;83.11;97820.27;1672880;84;20991;-76
2022/12/12 03:54:58;;;;;;;11.93;4.33;;;;;;;2.83;82.62;97820.27;1675859;85;21071;-76
2022/12/12 03:57:37;;;;;;;9.28;4.47;;;;;;;2.83;83.12;97820.27;1654732;85;21081;-76
2022/12/12 04:00:12;;;;;;;10.70;4.70;;;;;;;2.88;82.28;97817.62;1694983;84;21026;-76
2022/12/12 04:03:14;;;;;;;9.35;4.60;;;;;;;2.88;82.81;97824.05;1656700;85;21061;-77
2022/12/12 04:06:28;;;;;;;8.60;4.58;;;;;;;2.88;82.47;97822.77;1595497;88;21114;-76
2022/12/12 04:15:25;;;;;;;11.55;5.03;;;;;;;2.77;83.05;97817.80;1686359;84;21040;-77
2022/12/12 04:18:20;;;;;;;10.80;4.75;;;;;;;2.72;83.82;97815.72;1668872;85;21053;-76
2022/12/12 04:24:21;;;;;;;15.58;5.70;;;;;;;2.72;83.29;97817.84;1660397;85;21025;-76
2022/12/12 04:26:58;;;;;;;;;;;;;;;2.71;84.27;97813.59;1700618;84;21552;-77
2022/12/12 04:30:01;;;;;;;11.48;4.72;;;;;;;2.71;84.15;97816.61;1688716;84;20836;-76
2022/12/12 04:33:08;;;;;;;11.48;4.85;;;;;;;2.71;83.56;97809.74;1698169;84;21059;-76
2022/12/12 04:35:45;;;;;;;12.10;4.53;;;;;;;2.76;83.41;97830.20;1701437;84;21016;-75
2022/12/12 04:38:18;;;;;;;12.25;5.20;;;;;;;2.72;83.99;97822.13;1674554;85;21876;-77
2022/12/12 04:40:50;;;;;;;14.35;5.92;;;;;;;2.71;84.26;97831.56;1658318;85;21061;-77
2022/12/12 04:43:30;;;;;;;11.30;5.08;;;;;;;2.69;84.18;97838.43;1670380;85;21091;-75
2022/12/12 04:46:03;;;;;;;9.28;4.55;;;;;;;2.72;84.03;97846.07;1693754;84;21920;-77
2022/12/12 04:48:36;;;;;;;11.20;5.40;;;;;;;2.71;84.41;97838.42;1696204;84;21036;-76
2022/12/12 04:51:06;;;;;;;14.35;5.55;;;;;;;2.71;84.20;97845.67;1697420;84;21047;-77
2022/12/12 04:53:39;;;;;;;14.13;5.95;;;;;;;2.68;84.90;97839.73;1693560;84;21571;-76
2022/12/12 04:56:10;;;;;;;16.57;6.65;;;;;;;2.69;84.90;97846.13;1675738;85;21065;-77
2022/12/12 04:58:39;;;;;;;11.43;5.45;;;;;;;2.68;84.92;97856.41;1676104;85;21040;-76
2022/12/12 05:01:24;;;;;;;10.43;5.45;;;;;;;2.68;84.62;97870.08;1680180;84;21056;-77
2022/12/12 05:04:15;;;;;;;11.57;5.28;;;;;;;2.70;84.85;97861.09;1663536;84;22133;-76
2022/12/12 05:06:47;;;;;;;11.75;5.37;;;;;;;2.65;85.04;97862.44;1658094;85;21053;-77
2022/12/12 05:09:17;;;;;;;15.43;6.70;;;;;;;2.70;84.56;97863.65;1673081;85;21167;-76
2022/12/12 05:11:44;;;;;;;11.80;5.90;;;;;;;2.70;84.76;97873.92;1681045;84;21631;-77
2022/12/12 05:14:15;;;;;;;15.15;6.08;;;;;;;2.72;84.87;97865.31;1677246;85;21130;-77
2022/12/12 05:16:46;;;;;;;14.40;5.87;;;;;;;2.74;84.57;97871.28;1687581;84;21039;-77
2022/12/12 05:19:14;;;;;;;15.70;6.83;;;;;;;2.72;84.77;97871.73;1680149;85;21081;-76
2022/12/12 05:21:41;;;;;;;16.65;6.40;;;;;;;2.73;84.85;97878.58;1688281;84;21040;-77
2022/12/12 05:24:09;;;;;;;16.75;6.12;;;;;;;2.73;84.75;97884.16;1679343;85;21556;-76
2022/12/12 05:26:37;;;;;;;19.20;7.42;;;;;;;2.76;84.81;97890.52;1668732;85;21623;-76
2022/12/12 05:29:04;;;;;;;16.67;6.05;;;;;;;2.74;85.40;97893.53;1683552;85;21041;-77
2022/12/12 05:31:32;;;;;;;13.78;6.92;;;;;;;2.78;84.86;97888.77;1681447;84;21079;-77
2022/12/12 05:34:00;;;;;;;22.10;8.18;;;;;;;2.71;85.81;97888.46;1703109;84;20995;-77
2022/12/12 05:36:27;;;;;;;19.12;7.37;;;;;;;2.75;85.14;97898.66;1666215;85;21057;-76
2022/12/12 05:38:55;;;;;;;21.35;6.67;;;;;;;2.78;85.03;97906.30;1700975;84;21055;-77
2022/12/12 05:41:22;;;;;;;20.10;6.70;;;;;;;2.76;85.22;97902.91;1672555;85;21061;-77
2022/12/12 05:43:50;;;;;;;18.20;8.00;;;;;;;2.72;85.58;97894.83;1685342;84;21019;-77
2022/12/12 05:46:17;;;;;;;21.25;7.35;;;;;;;2.78;85.47;97914.45;1667482;85;21317;-76
2022/12/12 05:48:50;;;;;;;15.60;7.58;;;;;;;2.79;85.29;97908.02;1678971;84;21772;-76
2022/12/12 05:51:18;;;;;;;17.75;7.92;;;;;;;2.84;85.14;97922.06;1698090;84;21591;-77
2022/12/12 05:53:46;;;;;;;17.87;6.92;;;;;;;2.87;84.89;97912.21;1671063;85;21032;-77
2022/12/12 05:56:14;;;;;;;17.45;6.37;;;;;;;2.85;85.03;97917.36;1702135;84;21000;-77
2022/12/12 05:58:41;;;;;;;18.70;7.70;;;;;;;2.85;84.94;97908.81;1706341;84;21039;-77
2022/12/12 06:01:10;;;;;;;18.62;7.97;;;;;;;2.88;84.71;97924.16;1684469;84;21025;-77
2022/12/12 06:03:37;;;;;;;21.95;7.15;;;;;;;2.85;84.96;97920.37;1687332;84;21552;-77
2022/12/12 06:06:05;;;;;;;17.37;7.08;;;;;;;2.90;84.70;97921.14;1687394;85;21017;-77
2022/12/12 06:08:33;;;;;;;15.90;7.45;;;;;;;2.90;84.61;97919.86;1690452;84;21004;-76
2022/12/12 06:11:06;;;;;;;16.62;6.87;;;;;;;2.88;84.82;97926.73;1693907;84;21056;-77
2022/12/12 06:13:33;;;;;;;15.23;6.80;;;;;;;2.92;84.45;97932.23;1666842;85;21009;-77
2022/12/12 06:16:09;;;;;;;14.35;7.03;;;;;;;2.86;85.00;97938.73;1671332;84;20988;-77
2022/12/12 06:18:36;;;;;;;13.95;6.67;;;;;;;2.92;84.42;97933.52;1686837;84;21046;-76
2022/12/12 06:21:07;;;;;;;17.23;7.12;;;;;;;2.87;84.60;97943.86;1709278;83;21024;-77
2022/12/12 06:23:38;;;;;;;13.70;6.12;;;;;;;2.85;84.90;97947.32;1669982;85;21029;-77
2022/12/12 06:26:08;;;;;;;16.55;6.67;;;;;;;2.87;84.77;97941.73;1696032;84;21008;-76
2022/12/12 06:28:37;;;;;;;18.07;6.92;;;;;;;2.86;84.66;97942.14;1667989;84;21034;-77
2022/12/12 06:31:05;;;;;;;18.45;8.35;;;;;;;2.87;84.69;97943.86;1681090;84;21924;-77
2022/12/12 06:33:34;;;;;;;19.98;6.65;;;;;;;2.83;84.87;97942.64;1659849;85;21021;-78
2022/12/12 06:36:10;;;;;;;19.80;7.70;;;;;;;2.91;84.60;97954.50;1680927;84;21086;-77
2022/12/12 06:38:39;;;;;;;18.40;6.87;;;;;;;2.88;84.58;97959.66;1659839;85;21038;-77
2022/12/12 06:41:11;;;;;;;12.63;5.83;;;;;;;2.87;84.59;97965.67;1681050;84;21027;-78
2022/12/12 06:43:39;;;;;;;12.73;6.30;;;;;;;2.86;84.56;97970.38;1679419;84;21877;-78
2022/12/12 06:46:11;;;;;;;16.02;7.15;;;;;;;2.88;84.56;97975.06;1690124;84;20987;-77
2022/12/12 06:48:39;;;;;;;14.38;6.37;;;;;;;2.87;84.68;97975.95;1665779;85;21084;-78
2022/12/12 06:51:10;;;;;;;17.40;6.80;;;;;;;2.92;84.43;97970.30;1691570;84;21352;-77
2022/12/12 06:53:37;;;;;;;15.20;6.33;;;;;;;2.83;85.02;97976.02;1668909;84;21567;-76
2022/12/12 06:56:11;;;;;;;15.58;6.62;;;;;;;2.85;84.74;97974.27;1659588;85;21072;-76
2022/12/12 06:58:39;;;;;;;14.73;6.58;;;;;;;2.84;84.85;97978.53;1707539;84;21084;-76
2022/12/12 07:01:09;;;;;;;19.15;7.58;;;;;;;2.83;84.72;97978.14;1662958;85;21576;-76
2022/12/12 07:03:36;;;;;;;15.95;7.05;;;;;;;2.77;85.11;97978.21;1684108;84;21015;-77
2022/12/12 07:06:05;;;;;;;17.10;6.70;;;;;;;2.82;85.04;97978.98;1678315;85;21060;-77
2022/12/12 07:08:36;;;;;;;17.20;7.55;;;;;;;2.83;85.09;97978.14;1688462;84;20992;-78
2022/12/12 07:11:10;;;;;;;23.07;7.90;;;;;;;2.78;85.70;97983.74;1649543;85;21015;-76
2022/12/12 07:13:38;;;;;;;12.05;5.90;;;;;;;2.84;85.35;97986.23;1661668;85;21032;-76
2022/12/12 07:16:07;;;;;;;12.70;5.55;;;;;;;2.86;85.32;97994.77;1649575;85;21043;-77
2022/12/12 07:18:35;;;;;;;11.70;6.08;;;;;;;2.86;85.20;97992.20;1636529;86;21074;-78
2022/12/12 07:21:06;;;;;;;13.83;5.30;;;;;;;2.89;84.99;98001.16;1627601;87;21042;-78
2022/12/12 07:23:34;;;;;;;11.53;5.87;;;;;;;2.85;84.94;97994.37;1631838;87;21075;-77
2022/12/12 07:26:04;;;;;;;14.63;6.15;;;;;;;2.79;85.18;97985.46;1617323;87;21607;-76
2022/12/12 07:28:32;;;;;;;14.43;5.30;;;;;;;2.82;85.09;98002.53;1625852;87;21004;-77
2022/12/12 07:31:07;;;;;;;18.40;5.58;;;;;;;2.78;85.34;98004.28;1617740;87;21039;-78
2022/12/12 07:33:36;;;;;;;16.05;5.85;;;;;;;2.74;85.68;97998.77;1619400;87;21091;-79
2022/12/12 07:36:05;;;;;;;14.80;5.72;;;;;;;2.78;85.38;97999.14;1618059;87;21951;-76
2022/12/12 07:38:33;;;;;;;21.65;7.10;;;;;;;2.77;85.70;98001.31;1598070;89;21589;-77
2022/12/12 07:41:07;;;;;;;14.03;5.72;;;;;;;2.72;85.97;98003.06;1615277;87;21011;-76
2022/12/12 07:43:35;;;;;;;14.47;5.28;;;;;;;2.70;86.19;98006.08;1594404;89;21647;-76
2022/12/12 07:46:09;;;;;;;19.70;6.35;;;;;;;2.80;85.83;98012.81;1589163;89;21083;-77
2022/12/12 07:48:36;;;;;;;16.25;5.53;;;;;;;2.70;86.28;98015.06;1616971;87;21087;-77
2022/12/12 07:51:04;;;;;;;12.98;5.70;;;;;;;2.73;86.23;98018.45;1624612;87;21455;-77
2022/12/12 07:53:32;;;;;;;10.30;5.37;;;;;;;2.70;86.55;98020.20;1626652;87;21067;-78
2022/12/12 07:55:59;;;;;;;13.70;6.00;;;;;;;2.77;85.93;98018.84;1623020;87;21701;-78
2022/12/12 07:58:27;;;;;;;14.43;5.67;;;;;;;2.72;86.20;98025.72;1602967;89;21176;-77
2022/12/12 08:00:54;;;;;;;12.07;5.45;;;;;;;2.72;86.19;98025.72;1612354;87;21081;-78
2022/12/12 08:03:22;;;;;;;16.05;5.70;;;;;;;2.67;86.61;98032.64;1612300;87;21110;-78
2022/12/12 08:05:50;;;;;;;11.15;5.47;;;;;;;2.73;86.10;98028.72;1600074;89;21074;-77
2022/12/12 08:08:18;;;;;;;14.50;6.00;;;;;;;2.71;86.50;98030.45;1596111;89;21586;-78
2022/12/12 08:10:45;;;;;;;14.45;5.12;;;;;;;2.74;86.19;98034.70;1614538;87;21062;-77
2022/12/12 08:13:13;;;;;;;12.60;5.00;;;;;;;2.78;86.05;98037.20;1609623;87;21037;-78
2022/12/12 08:15:42;;;;;;;11.40;5.00;;;;;;;2.82;86.11;98034.17;1603309;86;21055;-78
2022/12/12 08:18:09;;;;;;;9.40;4.37;;;;;;;2.90;85.88;98033.66;1637677;87;21052;-77
2022/12/12 08:20:39;;;;;;;9.35;4.22;;;;;;;2.94;85.49;98035.76;1643423;87;21042;-78
2022/12/12 08:23:07;;;;;;;15.60;4.12;;;;;;;3.04;85.20;98037.78;1640824;85;21032;-77
2022/12/12 08:25:35;;;;;;;7.87;3.70;;;;;;;3.07;84.96;98046.75;1636770;87;21027;-77
2022/12/12 08:28:03;;;;;;;21.57;4.67;;;;;;;3.10;84.51;98051.39;1641028;86;21006;-78
2022/12/12 08:30:31;;;;;;;14.50;4.85;;;;;;;3.18;84.56;98051.30;1644339;86;21690;-78
2022/12/12 08:32:58;;;;;;;9.20;3.60;;;;;;;3.22;83.28;98061.11;1646791;87;21023;-77
2022/12/12 08:35:31;;;;;;;11.90;4.00;;;;;;;3.25;83.52;98058.08;1632124;87;21361;-77
2022/12/12 08:37:58;;;;;;;8.50;3.20;;;;;;;3.30;83.32;98058.89;1632306;86;21136;-78
2022/12/12 08:40:26;;;;;;;7.45;3.05;;;;;;;3.28;82.49;98063.20;1633852;87;21044;-78
2022/12/12 08:42:53;;;;;;;5.92;2.70;;;;;;;3.34;82.60;98065.69;1630641;87;21023;-78
2022/12/12 08:45:21;;;;;;;7.08;3.35;;;;;;;3.33;81.06;98072.96;1629915;87;21074;-77
2022/12/12 08:47:48;;;;;;;5.65;2.77;;;;;;;3.35;81.00;98071.66;1633428;87;21055;-78
2022/12/12 08:50:16;;;;;;;8.58;3.80;;;;;;;3.36;80.73;98074.22;1634067;87;21032;-77
2022/12/12 08:52:44;;;;;;;8.05;3.37;;;;;;;3.38;80.96;98067.75;1602262;87;21078;-78
2022/12/12 08:55:11;;;;;;;7.03;3.27;;;;;;;3.37;81.34;98073.78;1596355;88;21095;-78
2022/12/12 08:57:39;;;;;;;6.70;2.87;;;;;;;3.33;81.53;98074.69;1594875;88;21042;-77
2022/12/12 09:00:08;;;;;;;6.58;3.37;;;;;;;3.35;81.45;98077.64;1595212;88;21050;-78
2022/12/12 09:02:36;;;;;;;6.70;3.12;;;;;;;3.42;81.81;98068.57;1575022;88;21109;-77
2022/12/12 09:05:04;;;;;;;7.70;3.05;;;;;;;3.32;81.61;98072.56;1598685;88;21126;-78
2022/12/12 09:07:31;;;;;;;8.45;3.40;;;;;;;3.32;81.50;98070.00;1602346;89;21113;-78
2022/12/12 09:09:59;;;;;;;9.33;3.62;;;;;;;3.31;80.81;98068.72;1630613;87;21075;-76
2022/12/12 09:12:27;;;;;;;14.53;3.12;;;;;;;3.38;81.59;98069.04;1630131;86;21045;-77
2022/12/12 09:14:54;;;;;;;6.92;2.60;;;;;;;3.49;81.38;98072.77;1634243;87;20985;-77
2022/12/12 09:17:22;;;;;;;7.87;3.58;;;;;;;3.54;81.34;98069.28;1632300;85;21024;-77
2022/12/12 09:19:50;;;;;;;9.80;2.90;;;;;;;3.54;80.76;98069.69;1632799;87;21008;-78
2022/12/12 09:22:17;;;;;;;6.53;3.60;;;;;;;3.60;81.09;98067.03;1599913;89;21097;-77
2022/12/12 09:24:44;;;;;;;6.03;3.17;;;;;;;3.64;80.27;98063.59;1590351;89;21905;-77
2022/12/12 09:27:12;;;;;;;9.55;2.87;;;;;;;3.64;80.02;98061.42;1622416;87;21059;-78
2022/12/12 09:29:39;;;;;;;5.25;2.77;;;;;;;3.72;80.38;98066.89;1639849;87;20976;-78
2022/12/12 09:32:08;;;;;;;5.12;2.67;;;;;;;3.69;79.50;98067.37;1637244;87;21075;-78
2022/12/12 09:34:38;;;;;;;8.58;3.62;;;;;;;3.71;79.12;98060.04;1634987;85;20992;-77
2022/12/12 09:37:06;;;;;;;6.17;2.67;;;;;;;3.60;78.68;98058.05;1642908;86;21016;-78
2022/12/12 09:39:33;;;;;;;6.50;3.02;;;;;;;3.60;79.04;98060.61;1618272;87;20996;-76
2022/12/12 09:42:24;;;;;;;9.13;3.40;;;;;;;3.52;78.74;98059.45;1640537;87;21019;-78
2022/12/12 09:44:56;;;;;;;6.53;2.95;;;;;;;3.51;78.85;98066.73;1619524;87;21068;-77
2022/12/12 09:47:49;;;;;;;7.83;3.08;;;;;;;3.40;77.95;98060.88;1642116;87;21062;-77
2022/12/12 09:50:34;;;;;;;8.45;2.95;;;;;;;3.32;77.77;98062.28;1613628;88;21045;-77
2022/12/12 09:53:12;;;;;;;11.38;4.03;;;;;;;3.34;78.20;98055.82;1644519;87;22407;-76
2022/12/12 09:56:06;;;;;;;9.55;3.20;;;;;;;3.34;77.59;98064.40;1632378;87;21948;-76
2022/12/12 09:59:02;;;;;;;;;;;;;;;3.37;78.35;98053.23;1612109;88;21101;-76
2022/12/12 10:01:50;;;;;;;5.95;2.37;;;;;;;3.42;76.09;98064.72;1637415;87;20132;-77
2022/12/12 10:04:41;;;;;;;5.22;1.60;;;;;;;3.52;74.23;98062.03;1633532;87;21071;-76
2022/12/12 10:07:20;;;;;;;3.62;1.52;;;;;;;3.52;71.42;98066.30;1638371;87;21138;-77
2022/12/12 10:10:02;;;;;;;3.75;2.00;;;;;;;3.49;67.03;98082.61;1634589;87;21136;-77
2022/12/12 10:12:33;;;;;;;8.85;2.67;;;;;;;3.56;68.21;98089.80;1598868;87;21074;-77
2022/12/12 10:15:07;;;;;;;3.80;1.70;;;;;;;3.60;68.65;98087.59;1647641;86;21572;-76
2022/12/12 10:17:41;;;;;;;3.35;1.47;;;;;;;3.67;67.98;98086.66;1609368;88;21069;-77
2022/12/12 10:20:21;;;;;;;2.87;1.50;;;;;;;3.71;68.11;98096.03;1580970;90;21048;-77
2022/12/12 10:23:11;;;;;;;5.53;2.10;;;;;;;3.81;66.76;98086.91;1623789;87;21048;-77
2022/12/12 10:25:53;;;;;;;3.37;2.15;;;;;;;3.84;67.09;98099.30;1574453;90;21040;-77
2022/12/12 10:28:24;;;;;;;3.80;1.87;;;;;;;3.90;65.94;98098.33;1632581;87;21033;-77
2022/12/12 10:31:32;;;;;;;5.30;1.92;;;;;;;3.81;64.31;98102.34;1631129;87;21558;-77
2022/12/12 10:34:42;;;;;;;2.47;1.42;;;;;;;3.83;64.63;98097.58;1613293;88;20963;-77
2022/12/12 10:37:36;;;;;;;4.37;2.37;;;;;;;3.86;64.65;98108.25;1596092;89;21006;-77
2022/12/12 10:40:36;;;;;;;3.10;1.40;;;;;;;3.89;64.35;98112.92;1571603;89;21030;-76
2022/12/12 10:43:18;;;;;;;4.22;1.98;;;;;;;3.97;65.73;98123.10;1622484;87;21059;-76
2022/12/12 10:46:14;;;;;;;4.37;2.15;;;;;;;3.92;65.05;98125.75;1634826;87;21540;-76
2022/12/12 10:48:42;;;;;;;4.30;2.33;;;;;;;3.96;64.36;98129.14;1613245;88;20986;-77
2022/12/12 10:51:13;;;;;;;8.48;1.87;;;;;;;4.05;65.28;98126.41;1614814;88;21048;-76
2022/12/12 10:53:41;;;;;;;4.65;2.10;;;;;;;4.06;63.93;98127.25;1585848;90;21021;-76
2022/12/12 10:56:14;;;;;;;4.35;1.65;;;;;;;4.03;65.34;98128.16;1634371;87;21024;-77
2022/12/12 10:58:47;;;;;;;5.05;2.25;;;;;;;4.03;64.72;98134.59;1627975;87;21918;-77
2022/12/12 11:01:22;;;;;;;15.08;2.87;;;;;;;3.97;63.07;98137.25;1621338;88;21048;-77
2022/12/12 11:03:54;;;;;;;4.55;2.25;;;;;;;3.84;62.25;98129.28;1558235;91;21047;-77
2022/12/12 11:06:47;;;;;;;6.08;2.75;;;;;;;3.81;61.94;98124.19;1624974;87;21013;-77
2022/12/12 11:09:22;;;;;;;3.27;1.93;;;;;;;3.64;62.54;98111.55;1627710;87;20971;-76
2022/12/12 11:12:10;;;;;;;5.42;2.35;;;;;;;3.62;63.97;98109.44;1642995;86;21254;-77
2022/12/12 11:14:42;;;;;;;8.75;2.90;;;;;;;3.47;62.60;98124.63;1641350;86;21043;-77
2022/12/12 11:17:27;;;;;;;10.10;3.05;;;;;;;3.41;62.23;98127.27;1642244;87;20990;-76
2022/12/12 11:19:58;;;;;;;11.00;3.17;;;;;;;3.44;62.81;98122.92;1661418;85;21037;-75
2022/12/12 11:22:27;;;;;;;8.35;3.12;;;;;;;3.48;62.42;98141.73;1671784;85;20982;-76
2022/12/12 11:24:55;;;;;;;9.00;3.30;;;;;;;3.37;62.14;98142.70;1638474;86;21049;-78
2022/12/12 11:27:33;;;;;;;11.10;3.55;;;;;;;3.29;61.56;98158.64;1672597;85;21052;-77
2022/12/12 11:30:06;;;;;;;6.53;3.42;;;;;;;3.29;62.13;98156.52;1666449;85;21124;-75
2022/12/12 11:32:41;;;;;;;6.00;3.22;;;;;;;3.28;62.67;98156.96;1666668;85;21036;-78
2022/12/12 11:35:35;;;;;;;5.25;2.67;;;;;;;3.19;61.83;98147.62;1667382;85;21116;-76
2022/12/12 11:38:08;;;;;;;8.68;3.80;;;;;;;3.19;62.98;98151.47;1662806;85;21045;-77
2022/12/12 11:40:36;;;;;;;13.83;3.63;;;;;;;3.16;61.88;98166.92;1666380;85;21088;-77
2022/12/12 11:43:27;;;;;;;7.08;2.55;;;;;;;3.35;63.28;98164.16;1663130;86;21702;-77
2022/12/12 11:46:06;;;;;;;5.97;2.52;;;;;;;3.36;62.18;98171.86;1666853;85;21048;-76
2022/12/12 11:48:55;;;;;;;5.22;2.80;;;;;;;3.40;61.11;98179.06;1656966;85;21084;-76
2022/12/12 11:51:43;;;;;;;8.03;2.95;;;;;;;3.25;60.46;98184.39;1615264;87;21078;-77
2022/12/12 11:54:28;;;;;;;9.55;4.62;;;;;;;3.25;61.57;98190.81;1669445;85;21017;-75
2022/12/12 11:57:21;;;;;;;8.55;3.02;;;;;;;3.10;61.23;98202.07;1631933;87;21369;-77
2022/12/12 12:00:18;;;;;;;6.53;2.45;;;;;;;3.01;62.15;98199.61;1635708;87;21323;-77
2022/12/12 12:03:17;;;;;;;7.45;3.00;;;;;;;3.03;63.18;98208.99;1616409;87;21033;-77
2022/12/12 12:06:24;;;;;;;7.58;2.65;;;;;;;2.87;63.35;98200.58;1638851;87;21609;-77
2022/12/12 12:09:08;;;;;;;5.75;2.35;;;;;;;2.84;63.37;98201.03;1606641;87;21057;-77
2022/12/12 12:11:56;;;;;;;5.10;2.45;;;;;;;2.74;63.58;98193.39;1635190;85;21622;-77
2022/12/12 12:14:47;;;;;;;6.65;2.50;;;;;;;2.63;63.61;98199.06;1662722;85;21144;-76
2022/12/12 12:17:36;;;;;;;7.20;2.90;;;;;;;2.53;63.92;98193.58;1661899;85;21056;-77
2022/12/12 12:20:26;;;;;;;6.97;2.52;;;;;;;2.51;64.55;98189.73;1663484;85;21671;-77
2022/12/12 12:23:19;;;;;;;7.12;3.75;;;;;;;2.53;64.84;98189.30;1657084;85;21935;-76
2022/12/12 12:26:18;;;;;;;5.58;2.55;;;;;;;2.62;64.71;98199.06;1663131;85;21104;-77
2022/12/12 12:29:20;;;;;;;6.47;2.75;;;;;;;2.61;64.17;98191.80;1666361;85;21654;-77